Time;durP1;ratioP1;P1;durP2;ratioP2;P2;SDS_P1;SDS_P2;PMS_P1;PMS_P2;Temp;Humidity;BMP_temperature;BMP_pressure;BME280_temperature;BME280_humidity;BME280_pressure;Samples;Min_cycle;Max_cycle;Signal;HPM_P1;HPM_P2
2022/01/30 00:01:35;;;;;;;15.82;3.83;;;;;;;8.61;64.19;100398.09;5092220;28;20510;-59
2022/01/30 00:04:01;;;;;;;15.18;3.38;;;;;;;8.60;64.43;100393.78;5090497;28;20083;-59
2022/01/30 00:06:28;;;;;;;22.33;3.63;;;;;;;8.60;64.49;100401.66;5092520;28;20048;-61
2022/01/30 00:08:55;;;;;;;18.30;3.35;;;;;;;8.59;64.70;100406.03;5092594;28;20113;-60
2022/01/30 00:11:26;;;;;;;13.93;2.88;;;;;;;8.56;64.28;100411.38;5092404;28;20044;-60
2022/01/30 00:13:53;;;;;;;18.52;3.88;;;;;;;8.53;64.25;100403.66;5092242;28;20056;-60
2022/01/30 00:16:22;;;;;;;16.85;3.88;;;;;;;8.48;64.57;100367.06;5092055;28;20442;-59
2022/01/30 00:21:32;;;;;;;19.42;4.35;;;;;;;8.40;64.43;100407.59;5092028;28;20048;-58
2022/01/30 00:24:04;;;;;;;17.40;3.20;;;;;;;8.35;64.19;100399.91;5092285;28;20061;-59
2022/01/30 00:26:34;;;;;;;21.92;4.35;;;;;;;8.32;64.39;100397.41;5090520;28;20488;-60
2022/01/30 00:29:01;;;;;;;24.70;5.10;;;;;;;8.29;64.69;100397.50;5092252;28;20052;-59
2022/01/30 00:31:27;;;;;;;15.88;4.05;;;;;;;8.25;64.40;100412.50;5091931;28;20055;-59
2022/01/30 00:34:14;;;;;;;20.92;3.72;;;;;;;8.22;64.57;100412.63;5091834;28;20079;-60
2022/01/30 00:36:41;;;;;;;19.40;3.33;;;;;;;8.19;64.41;100424.06;5091450;28;20105;-59
2022/01/30 00:39:07;;;;;;;21.35;4.90;;;;;;;8.15;64.82;100427.72;5091686;28;20040;-60
2022/01/30 00:41:34;;;;;;;20.58;3.47;;;;;;;8.13;64.55;100419.06;5091653;28;20495;-59
2022/01/30 00:44:01;;;;;;;26.20;3.97;;;;;;;8.10;64.85;100408.69;5090487;28;20059;-59
2022/01/30 00:46:27;;;;;;;19.52;3.13;;;;;;;8.07;64.78;100409.66;5091748;28;20063;-60
2022/01/30 00:48:54;;;;;;;21.17;3.83;;;;;;;8.07;64.67;100408.78;5091765;28;20492;-59
2022/01/30 00:51:21;;;;;;;13.00;3.00;;;;;;;8.06;64.57;100399.22;5091224;28;20112;-60
2022/01/30 00:53:47;;;;;;;19.00;3.17;;;;;;;8.07;64.55;100409.66;5091563;28;20116;-60
2022/01/30 00:56:14;;;;;;;16.60;3.25;;;;;;;8.06;63.97;100404.44;5091465;28;20043;-59
2022/01/30 00:58:40;;;;;;;18.13;3.95;;;;;;;8.07;64.28;100416.66;5090278;28;20051;-60
2022/01/30 01:01:09;;;;;;;16.92;4.05;;;;;;;8.07;64.08;100403.53;5091165;28;20093;-60
2022/01/30 01:03:35;;;;;;;16.10;3.83;;;;;;;8.10;64.09;100408.69;5091448;28;20058;-59
2022/01/30 01:06:05;;;;;;;13.70;2.80;;;;;;;8.11;64.01;100417.41;5091479;28;20188;-59
2022/01/30 01:08:43;;;;;;;16.67;3.67;;;;;;;8.13;64.05;100418.19;5090970;28;20595;-58
2022/01/30 01:11:28;;;;;;;19.02;3.45;;;;;;;8.15;63.93;100422.47;5091314;28;20052;-60
2022/01/30 01:24:59;;;;;;;13.45;3.00;;;;;;;8.28;63.67;100427.28;5091144;28;20537;-59
2022/01/30 01:27:25;;;;;;;14.77;3.00;;;;;;;8.28;63.33;100414.16;5091399;28;20048;-60
2022/01/30 01:29:52;;;;;;;12.77;2.38;;;;;;;8.26;63.16;100427.31;5090593;28;20052;-60
2022/01/30 01:32:19;;;;;;;13.65;2.80;;;;;;;8.25;63.36;100435.25;5091229;28;20091;-60
2022/01/30 01:34:45;;;;;;;15.50;3.05;;;;;;;8.24;63.33;100417.81;5091245;28;20113;-59
2022/01/30 01:37:12;;;;;;;19.35;3.13;;;;;;;8.21;63.11;100426.66;5091207;28;20745;-59
2022/01/30 01:39:43;;;;;;;15.13;3.58;;;;;;;8.18;63.33;100418.88;5091084;28;20051;-61
2022/01/30 01:42:10;;;;;;;17.23;2.97;;;;;;;8.14;63.35;100435.63;5091161;28;20052;-59
2022/01/30 01:44:44;;;;;;;22.45;4.15;;;;;;;8.10;62.88;100436.69;5091123;28;20044;-59
2022/01/30 01:47:12;;;;;;;17.08;3.42;;;;;;;8.05;63.23;100434.22;5092067;28;20393;-60
2022/01/30 01:49:39;;;;;;;19.48;3.58;;;;;;;8.01;63.16;100441.34;5093686;28;20051;-59
2022/01/30 01:52:21;;;;;;;16.63;3.38;;;;;;;7.97;63.08;100450.22;5095322;28;20052;-59
2022/01/30 01:54:57;;;;;;;13.90;3.08;;;;;;;7.89;62.46;100458.31;5095408;28;20101;-60
2022/01/30 01:57:26;;;;;;;19.35;3.40;;;;;;;7.89;63.68;100455.72;5095212;28;20094;-59
2022/01/30 01:59:52;;;;;;;13.30;3.55;;;;;;;7.87;63.83;100447.06;5095056;28;20052;-59
2022/01/30 02:02:20;;;;;;;18.67;4.05;;;;;;;7.87;64.05;100441.81;5094358;28;20044;-59
2022/01/30 02:04:47;;;;;;;16.27;3.42;;;;;;;7.86;63.92;100445.34;5095036;28;20113;-59
2022/01/30 02:07:55;;;;;;;16.65;3.53;;;;;;;7.87;64.11;100438.31;5095010;28;20044;-60
2022/01/30 02:10:22;;;;;;;16.35;3.65;;;;;;;7.86;63.88;100437.50;5094207;28;20044;-59
2022/01/30 02:12:52;;;;;;;20.73;3.67;;;;;;;7.87;64.32;100433.09;5094776;28;20116;-59
2022/01/30 02:26:00;;;;;;;17.67;3.08;;;;;;;7.78;63.71;100422.00;5094384;28;20104;-59
2022/01/30 02:28:30;;;;;;;19.95;3.22;;;;;;;7.75;63.99;100439.63;5094441;28;20117;-61
2022/01/30 02:33:24;;;;;;;12.88;3.42;;;;;;;7.68;64.00;100447.69;5094260;28;20048;-59
2022/01/30 02:35:50;;;;;;;22.55;3.88;;;;;;;7.65;64.05;100454.78;5093846;28;20093;-60
2022/01/30 02:38:25;;;;;;;19.85;3.33;;;;;;;7.62;63.76;100457.53;5094124;28;20496;-60
2022/01/30 02:40:55;;;;;;;22.42;3.75;;;;;;;7.60;64.35;100449.72;5092859;28;20067;-60
2022/01/30 02:43:28;;;;;;;13.68;2.58;;;;;;;7.58;64.60;100459.38;5094275;28;20055;-61
2022/01/30 02:46:20;;;;;;;;;;;;;;;7.56;64.01;100461.19;5093502;28;20067;-60
2022/01/30 02:48:51;;;;;;;12.00;3.35;;;;;;;7.56;64.56;100448.94;5094021;28;19974;-59
2022/01/30 02:51:22;;;;;;;18.30;3.67;;;;;;;7.53;64.19;100456.06;5093815;28;20557;-60
2022/01/30 02:54:02;;;;;;;20.90;3.28;;;;;;;7.48;64.84;100461.44;5093861;28;20043;-60
2022/01/30 02:56:30;;;;;;;20.92;3.95;;;;;;;7.46;64.74;100451.91;5093750;28;20134;-59
2022/01/30 02:58:57;;;;;;;16.23;3.03;;;;;;;7.42;64.38;100444.19;5092567;28;20048;-59
2022/01/30 03:01:24;;;;;;;19.23;3.35;;;;;;;7.40;64.92;100456.47;5092420;28;20733;-59
2022/01/30 03:03:50;;;;;;;12.80;3.28;;;;;;;7.39;64.76;100454.75;5093873;28;20048;-60
2022/01/30 03:06:17;;;;;;;19.40;3.42;;;;;;;7.38;64.72;100449.56;5093906;28;20048;-59
2022/01/30 03:08:44;;;;;;;18.23;2.88;;;;;;;7.37;64.73;100446.06;5093300;28;20048;-59
2022/01/30 03:11:10;;;;;;;19.10;2.92;;;;;;;7.37;64.58;100463.56;5093397;28;20125;-60
2022/01/30 03:13:37;;;;;;;14.13;2.85;;;;;;;7.38;64.95;100454.78;5093887;28;20562;-60
2022/01/30 03:16:04;;;;;;;17.73;3.22;;;;;;;7.40;65.10;100481.81;5093482;28;20074;-60
2022/01/30 03:18:31;;;;;;;13.77;2.80;;;;;;;7.41;64.31;100470.41;5093435;28;20091;-61
2022/01/30 03:20:58;;;;;;;15.73;2.55;;;;;;;7.43;64.85;100487.78;5093464;28;20050;-60
2022/01/30 03:23:25;;;;;;;10.80;2.58;;;;;;;7.46;64.88;100488.59;5093343;28;20044;-60
2022/01/30 03:25:58;;;;;;;14.05;2.72;;;;;;;7.48;64.68;100490.25;5093281;28;20060;-62
2022/01/30 03:28:26;;;;;;;14.07;2.38;;;;;;;7.49;64.23;100483.25;5093551;28;20063;-60
2022/01/30 03:30:59;;;;;;;13.45;2.45;;;;;;;7.49;64.10;100486.75;5092898;28;20048;-59
2022/01/30 03:33:26;;;;;;;16.45;2.72;;;;;;;7.49;64.41;100493.75;5092173;28;20056;-60
2022/01/30 03:35:53;;;;;;;23.25;3.00;;;;;;;7.48;63.94;100484.16;5092046;28;20060;-60
2022/01/30 03:38:21;;;;;;;15.80;2.72;;;;;;;7.47;64.19;100503.41;5091777;28;20079;-60
2022/01/30 03:40:49;;;;;;;16.67;3.28;;;;;;;7.43;64.40;100503.50;5091803;28;20464;-60
2022/01/30 03:43:16;;;;;;;13.48;2.65;;;;;;;7.41;64.63;100505.31;5091694;28;20047;-59
2022/01/30 03:45:43;;;;;;;16.35;2.70;;;;;;;7.41;64.73;100494.84;5092708;28;20164;-59
2022/01/30 03:48:10;;;;;;;16.70;3.25;;;;;;;7.41;65.07;100510.53;5091754;28;20048;-60
2022/01/30 03:50:37;;;;;;;22.65;2.72;;;;;;;7.43;65.55;100524.47;5092680;28;20048;-62
2022/01/30 03:53:03;;;;;;;20.10;2.67;;;;;;;7.46;65.07;100512.16;5092741;28;20125;-60
2022/01/30 03:55:30;;;;;;;13.32;2.70;;;;;;;7.47;65.12;100499.03;5092761;28;20052;-60
2022/01/30 03:57:57;;;;;;;16.88;2.58;;;;;;;7.48;65.36;100510.38;5092790;28;20140;-60
2022/01/30 04:00:24;;;;;;;21.25;2.67;;;;;;;7.47;65.36;100504.25;5092218;28;20093;-60
2022/01/30 04:02:50;;;;;;;17.33;3.10;;;;;;;7.44;65.18;100509.59;5092228;28;20079;-60
2022/01/30 04:05:17;;;;;;;12.02;2.92;;;;;;;7.41;65.55;100507.94;5092349;28;20044;-60
2022/01/30 04:07:48;;;;;;;14.07;2.55;;;;;;;7.37;65.25;100500.22;5091205;28;20484;-59
2022/01/30 04:10:15;;;;;;;20.55;3.08;;;;;;;7.38;65.67;100509.78;5090181;28;20055;-60
2022/01/30 04:12:42;;;;;;;17.38;3.47;;;;;;;7.35;65.73;100510.75;5091312;28;20079;-60
2022/01/30 04:15:10;;;;;;;19.10;3.10;;;;;;;7.34;65.92;100524.75;5092181;28;20055;-59
2022/01/30 04:17:37;;;;;;;18.00;3.15;;;;;;;7.34;66.39;100516.91;5091128;28;20044;-60
2022/01/30 04:20:04;;;;;;;16.02;3.10;;;;;;;7.33;66.47;100509.94;5091591;28;20048;-59
2022/01/30 04:22:30;;;;;;;18.17;3.20;;;;;;;7.32;66.34;100521.31;5092492;28;20040;-60
2022/01/30 04:24:57;;;;;;;15.63;2.47;;;;;;;7.32;66.22;100505.59;5092181;28;20074;-60
2022/01/30 04:27:23;;;;;;;9.60;2.53;;;;;;;7.32;66.49;100528.34;5091949;28;20059;-60
2022/01/30 04:29:50;;;;;;;18.33;2.72;;;;;;;7.31;66.34;100517.00;5091724;28;20105;-60
2022/01/30 04:32:17;;;;;;;17.50;3.33;;;;;;;7.29;66.45;100530.13;5091815;28;20082;-59
2022/01/30 04:34:51;;;;;;;17.40;3.70;;;;;;;7.29;66.32;100524.06;5091858;28;20040;-59
2022/01/30 04:37:26;;;;;;;15.45;3.40;;;;;;;7.29;66.08;100532.75;5090813;28;20110;-61
2022/01/30 04:40:21;;;;;;;17.80;3.80;;;;;;;7.29;66.11;100524.06;5091897;28;20050;-60
2022/01/30 05:04:27;;;;;;;20.25;3.53;;;;;;;7.00;66.25;100537.09;5091586;28;20040;-59
2022/01/30 05:09:28;;;;;;;17.83;3.28;;;;;;;7.01;66.45;100545.81;5091335;28;20056;-59
2022/01/30 05:11:55;;;;;;;26.02;4.00;;;;;;;7.02;67.03;100544.91;5091439;28;20056;-59
2022/01/30 05:14:25;;;;;;;26.65;3.90;;;;;;;7.03;66.95;100549.25;5091052;28;20055;-59
2022/01/30 05:16:52;;;;;;;15.18;3.72;;;;;;;7.04;66.64;100538.72;5090056;28;20056;-58
2022/01/30 05:19:18;;;;;;;21.65;3.72;;;;;;;7.07;66.78;100545.66;5091287;28;20044;-60
2022/01/30 05:21:45;;;;;;;21.83;3.28;;;;;;;7.11;67.05;100543.78;5090227;28;20385;-59
2022/01/30 05:24:12;;;;;;;18.55;3.33;;;;;;;7.12;66.81;100535.88;5091398;28;20491;-59
2022/01/30 05:26:44;;;;;;;23.65;4.55;;;;;;;7.12;66.68;100548.97;5091154;28;20052;-59
2022/01/30 05:29:12;;;;;;;23.00;3.72;;;;;;;7.16;66.94;100550.59;5089829;28;20056;-60
2022/01/30 05:31:39;;;;;;;21.70;3.75;;;;;;;7.17;66.62;100588.09;5091314;28;20124;-60
2022/01/30 05:34:06;;;;;;;19.52;4.22;;;;;;;7.17;66.62;100559.31;5090986;28;20477;-60
2022/01/30 05:36:33;;;;;;;31.30;5.32;;;;;;;7.19;66.63;100580.22;5091101;28;20056;-59
2022/01/30 05:39:00;;;;;;;20.88;4.25;;;;;;;7.17;66.24;100573.25;5089802;28;20048;-61
2022/01/30 05:41:27;;;;;;;25.88;5.15;;;;;;;7.20;66.25;100587.16;5091001;28;20055;-59
2022/01/30 05:43:58;;;;;;;27.50;4.30;;;;;;;7.20;66.17;100582.78;5091042;28;20055;-59
2022/01/30 05:46:36;;;;;;;20.33;4.50;;;;;;;7.21;66.28;100574.03;5090674;28;20044;-59
2022/01/30 05:49:03;;;;;;;20.27;4.18;;;;;;;7.21;66.35;100575.81;5089885;28;20052;-60
2022/01/30 05:51:30;;;;;;;22.00;4.25;;;;;;;7.21;65.91;100581.88;5090723;28;20044;-60
2022/01/30 05:53:56;;;;;;;19.83;4.75;;;;;;;7.20;65.95;100588.03;5089914;28;20056;-59
2022/01/30 05:56:23;;;;;;;21.55;4.85;;;;;;;7.17;65.64;100581.13;5090903;28;20044;-59
2022/01/30 05:58:50;;;;;;;27.38;4.38;;;;;;;7.16;66.19;100589.88;5091127;28;20450;-60
2022/01/30 06:01:17;;;;;;;21.75;4.15;;;;;;;7.14;65.72;100596.91;5089685;28;20052;-59
2022/01/30 06:03:43;;;;;;;19.42;4.25;;;;;;;7.12;66.08;100609.19;5090523;28;20490;-59
2022/01/30 06:06:10;;;;;;;18.92;3.85;;;;;;;7.09;65.77;100597.94;5090632;28;20048;-60
2022/01/30 06:08:43;;;;;;;22.85;4.47;;;;;;;7.06;65.84;100604.13;5091300;28;20055;-59
2022/01/30 06:11:11;;;;;;;21.05;3.90;;;;;;;7.03;65.86;100604.22;5090968;28;20055;-61
2022/01/30 06:13:38;;;;;;;18.90;3.90;;;;;;;7.01;66.34;100611.25;5089671;28;20094;-60
2022/01/30 06:16:06;;;;;;;23.90;5.30;;;;;;;6.99;66.29;100613.06;5089380;28;20044;-60
2022/01/30 06:18:32;;;;;;;21.92;4.43;;;;;;;6.99;66.26;100613.06;5090659;28;20067;-61
2022/01/30 06:21:01;;;;;;;26.27;4.53;;;;;;;6.98;66.44;100616.56;5090352;28;20048;-60
2022/01/30 06:23:28;;;;;;;15.73;3.65;;;;;;;6.98;66.48;100622.69;5090720;28;20180;-60
2022/01/30 06:25:55;;;;;;;25.88;5.28;;;;;;;6.98;66.06;100621.81;5089196;28;20071;-61
2022/01/30 06:28:22;;;;;;;25.20;4.82;;;;;;;6.97;66.47;100623.59;5090629;28;20055;-60
2022/01/30 06:30:49;;;;;;;25.23;5.25;;;;;;;6.96;66.28;100623.63;5090143;28;20595;-59
2022/01/30 06:33:16;;;;;;;26.48;5.13;;;;;;;6.94;66.37;100620.16;5091835;28;20051;-59
2022/01/30 06:35:42;;;;;;;22.23;4.47;;;;;;;6.94;66.55;100625.41;5094429;28;20485;-59
2022/01/30 06:38:09;;;;;;;30.80;5.85;;;;;;;6.93;66.33;100626.31;5094578;28;20052;-60
2022/01/30 06:40:36;;;;;;;24.70;4.80;;;;;;;6.93;66.50;100634.16;5094027;28;20451;-61
2022/01/30 06:43:02;;;;;;;30.75;4.75;;;;;;;6.94;66.69;100635.88;5094061;28;20097;-59
2022/01/30 06:45:32;;;;;;;29.10;5.15;;;;;;;6.96;66.37;100639.31;5094015;28;20556;-59
2022/01/30 06:47:59;;;;;;;22.65;4.38;;;;;;;6.96;66.31;100636.72;5093977;28;20051;-61
2022/01/30 06:50:25;;;;;;;22.10;3.97;;;;;;;6.97;66.60;100631.44;5093513;28;20060;-60
2022/01/30 06:52:52;;;;;;;27.67;4.65;;;;;;;6.99;66.47;100634.84;5093606;28;20129;-59
2022/01/30 06:55:20;;;;;;;22.08;4.43;;;;;;;7.00;66.58;100639.19;5094122;28;20283;-61
2022/01/30 06:57:46;;;;;;;21.23;4.05;;;;;;;7.01;66.52;100643.53;5093917;28;20101;-59
2022/01/30 07:00:14;;;;;;;26.90;4.63;;;;;;;7.02;66.77;100645.25;5093798;28;20050;-62
2022/01/30 07:02:40;;;;;;;29.38;5.45;;;;;;;7.05;66.22;100644.31;5093864;28;20036;-60
2022/01/30 07:05:08;;;;;;;25.52;4.80;;;;;;;7.07;66.26;100639.91;5093606;28;20052;-62
2022/01/30 07:07:36;;;;;;;23.00;4.78;;;;;;;7.09;66.37;100642.44;5092541;28;20043;-59
2022/01/30 07:10:05;;;;;;;26.27;4.63;;;;;;;7.08;66.26;100644.22;5091544;28;20060;-59
2022/01/30 07:12:32;;;;;;;31.38;5.32;;;;;;;7.12;66.71;100656.34;5092371;28;20060;-59
2022/01/30 07:14:58;;;;;;;24.92;4.32;;;;;;;7.15;66.79;100668.47;5093322;28;20055;-59
2022/01/30 07:17:25;;;;;;;23.25;5.45;;;;;;;7.17;66.69;100674.50;5093704;28;20048;-60
2022/01/30 07:19:52;;;;;;;25.73;5.28;;;;;;;7.19;66.48;100674.47;5092292;28;20056;-59
2022/01/30 07:22:18;;;;;;;26.73;5.10;;;;;;;7.19;66.48;100682.31;5093356;28;20047;-59
2022/01/30 07:24:45;;;;;;;26.92;5.72;;;;;;;7.21;66.47;100691.03;5093497;28;20082;-60
2022/01/30 07:27:11;;;;;;;24.27;4.68;;;;;;;7.22;66.48;100692.72;5093120;28;20097;-60
2022/01/30 07:29:38;;;;;;;24.00;4.30;;;;;;;7.24;66.83;100702.25;5092756;28;20052;-61
2022/01/30 07:32:05;;;;;;;20.35;5.07;;;;;;;7.25;66.94;100708.38;5093472;28;20047;-59
2022/01/30 07:34:31;;;;;;;25.20;5.05;;;;;;;7.26;66.55;100716.16;5093165;28;20044;-59
2022/01/30 07:36:58;;;;;;;30.10;5.50;;;;;;;7.27;66.77;100733.59;5093290;28;20096;-61
2022/01/30 07:39:28;;;;;;;25.17;5.05;;;;;;;7.28;67.03;100722.22;5093087;28;20056;-59
2022/01/30 07:41:55;;;;;;;24.67;4.95;;;;;;;7.30;67.12;100709.09;5092517;28;20055;-59
2022/01/30 07:44:22;;;;;;;28.15;6.20;;;;;;;7.29;66.78;100704.75;5091753;28;20121;-60
2022/01/30 07:46:48;;;;;;;29.70;5.28;;;;;;;7.29;66.95;100704.75;5092547;28;20052;-61
2022/01/30 07:49:15;;;;;;;22.92;5.45;;;;;;;7.28;66.61;100710.88;5091108;28;20052;-59
2022/01/30 07:51:42;;;;;;;30.35;6.40;;;;;;;7.27;66.67;100722.25;5092906;28;20129;-61
2022/01/30 07:54:09;;;;;;;28.35;6.47;;;;;;;7.24;66.80;100724.94;5092936;28;20056;-60
2022/01/30 07:56:35;;;;;;;33.15;5.65;;;;;;;7.20;66.75;100720.69;5092632;28;20090;-59
2022/01/30 07:59:06;;;;;;;24.52;4.88;;;;;;;7.17;66.65;100727.75;5092796;28;20044;-63
2022/01/30 08:01:33;;;;;;;27.58;6.00;;;;;;;7.13;66.95;100731.34;5092609;28;20048;-60
2022/01/30 08:04:00;;;;;;;29.02;4.95;;;;;;;7.11;67.06;100727.06;5092311;28;20134;-57
2022/01/30 08:06:27;;;;;;;28.77;5.25;;;;;;;7.10;67.01;100735.81;5092870;28;20067;-61
2022/01/30 08:08:53;;;;;;;29.60;5.82;;;;;;;7.10;67.26;100734.03;5092618;28;20044;-59
2022/01/30 08:11:21;;;;;;;32.03;5.28;;;;;;;7.12;67.58;100729.63;5092184;28;20050;-61
2022/01/30 08:13:47;;;;;;;23.17;5.40;;;;;;;7.13;67.46;100736.59;5092300;28;20485;-60
2022/01/30 08:16:14;;;;;;;37.22;6.13;;;;;;;7.15;67.44;100742.63;5092493;28;20052;-59
2022/01/30 08:18:41;;;;;;;28.50;5.88;;;;;;;7.17;67.52;100742.59;5092257;28;20048;-59
2022/01/30 08:21:07;;;;;;;36.85;6.15;;;;;;;7.20;67.25;100741.66;5092192;28;20485;-59
2022/01/30 08:23:34;;;;;;;28.42;5.85;;;;;;;7.22;67.22;100739.88;5092005;28;20093;-59
2022/01/30 08:26:02;;;;;;;31.55;6.28;;;;;;;7.23;66.83;100731.09;5092327;28;20569;-59
2022/01/30 08:28:29;;;;;;;29.67;6.22;;;;;;;7.25;67.13;100738.00;5091225;28;20052;-59
2022/01/30 08:30:56;;;;;;;31.10;5.95;;;;;;;7.28;67.11;100724.84;5091978;28;20112;-60
2022/01/30 08:33:23;;;;;;;41.35;6.70;;;;;;;7.31;66.83;100726.50;5091065;28;20047;-59
2022/01/30 08:35:50;;;;;;;29.10;5.57;;;;;;;7.33;66.78;100732.56;5091739;28;20052;-61
2022/01/30 08:38:18;;;;;;;31.13;5.97;;;;;;;7.36;66.36;100737.72;5092036;28;20415;-59
2022/01/30 08:40:46;;;;;;;36.08;6.35;;;;;;;7.38;66.05;100728.06;5091626;28;20066;-59
2022/01/30 08:43:14;;;;;;;29.48;5.70;;;;;;;7.40;66.38;100726.25;5091872;28;20051;-57
2022/01/30 08:45:41;;;;;;;34.20;6.60;;;;;;;7.42;66.24;100732.31;5091996;28;20052;-59
2022/01/30 08:48:08;;;;;;;37.70;5.57;;;;;;;7.45;66.43;100720.03;5091803;28;20131;-53
2022/01/30 08:50:35;;;;;;;29.25;5.45;;;;;;;7.46;65.81;100708.63;5091224;28;20044;-63
2022/01/30 08:53:02;;;;;;;25.33;6.35;;;;;;;7.44;65.46;100713.91;5091659;28;20064;-60
2022/01/30 08:55:29;;;;;;;41.80;6.80;;;;;;;7.44;66.08;100727.00;5091377;28;20081;-59
2022/01/30 08:57:57;;;;;;;30.38;6.30;;;;;;;7.45;66.25;100717.41;5089200;28;20557;-59
2022/01/30 09:00:25;;;;;;;41.05;7.10;;;;;;;7.45;66.02;100725.25;5091336;28;20051;-61
2022/01/30 09:02:51;;;;;;;38.38;6.20;;;;;;;7.44;65.75;100732.25;5090324;28;20047;-59
2022/01/30 09:05:18;;;;;;;34.90;6.60;;;;;;;7.43;65.41;100734.03;5091118;28;20404;-61
2022/01/30 09:07:45;;;;;;;38.88;7.00;;;;;;;7.42;65.66;100737.56;5091095;28;20055;-60
2022/01/30 09:10:12;;;;;;;38.13;7.18;;;;;;;7.41;65.82;100748.06;5090393;28;20044;-60
2022/01/30 09:12:39;;;;;;;33.05;5.90;;;;;;;7.41;65.82;100762.00;5088319;28;20077;-59
2022/01/30 09:15:08;;;;;;;39.70;8.32;;;;;;;7.40;64.89;100762.09;5090899;28;20048;-59
2022/01/30 09:17:35;;;;;;;41.30;6.32;;;;;;;7.40;65.49;100762.91;5089641;28;20047;-60
2022/01/30 09:20:04;;;;;;;42.03;6.82;;;;;;;7.41;65.40;100763.78;5089711;28;20055;-59
2022/01/30 09:22:32;;;;;;;34.00;6.22;;;;;;;7.45;65.52;100756.69;5089440;28;20058;-57
2022/01/30 09:24:59;;;;;;;34.58;6.03;;;;;;;7.48;65.66;100769.72;5090979;28;20512;-59
2022/01/30 09:27:25;;;;;;;35.53;6.97;;;;;;;7.48;65.52;100774.97;5090903;28;20048;-60
2022/01/30 09:29:52;;;;;;;34.88;6.45;;;;;;;7.50;65.71;100768.78;5090165;28;20131;-58
2022/01/30 09:32:19;;;;;;;37.10;7.10;;;;;;;7.55;65.85;100758.16;5090816;28;20051;-59
2022/01/30 09:34:45;;;;;;;37.22;7.70;;;;;;;7.58;65.64;100763.31;5091317;28;20397;-58
2022/01/30 09:37:12;;;;;;;32.88;5.78;;;;;;;7.63;65.24;100758.78;5091195;28;20048;-59
2022/01/30 09:39:39;;;;;;;36.53;6.38;;;;;;;7.66;65.04;100773.56;5091067;28;20121;-58
2022/01/30 09:42:06;;;;;;;37.53;6.45;;;;;;;7.68;65.00;100780.50;5090990;28;20105;-59
2022/01/30 09:44:39;;;;;;;30.52;6.30;;;;;;;7.71;62.36;100776.94;5089456;28;20048;-60
2022/01/30 09:47:14;;;;;;;34.08;6.10;;;;;;;7.75;63.02;100786.44;5090553;28;20122;-59
2022/01/30 09:49:48;;;;;;;35.33;5.97;;;;;;;7.79;64.09;100798.56;5090217;28;20052;-61
2022/01/30 09:52:15;;;;;;;26.60;5.47;;;;;;;7.85;64.57;100801.91;5089562;28;20040;-59
2022/01/30 09:54:41;;;;;;;33.38;6.50;;;;;;;7.91;64.43;100796.47;5090939;28;20040;-60
2022/01/30 09:57:08;;;;;;;30.25;6.43;;;;;;;7.94;64.20;100799.00;5090807;28;20044;-60
2022/01/30 09:59:36;;;;;;;36.03;7.25;;;;;;;8.01;63.97;100799.69;5090666;28;20047;-60
2022/01/30 10:02:04;;;;;;;30.50;5.80;;;;;;;8.06;63.65;100816.13;5090787;28;20052;-60
2022/01/30 10:04:32;;;;;;;28.20;6.13;;;;;;;8.13;63.60;100812.44;5089322;28;20044;-61
2022/01/30 10:07:05;;;;;;;33.67;6.38;;;;;;;8.20;63.57;100824.47;5090821;28;20048;-59
2022/01/30 10:09:36;;;;;;;34.22;5.72;;;;;;;8.30;63.91;100829.44;5092875;28;20047;-59
2022/01/30 10:12:15;;;;;;;28.48;6.13;;;;;;;8.33;61.84;100830.19;5094743;28;20557;-57
2022/01/30 10:14:52;;;;;;;32.20;5.78;;;;;;;8.35;60.57;100841.47;5094921;28;20059;-60
2022/01/30 10:17:26;;;;;;;42.08;7.13;;;;;;;8.43;61.56;100854.38;5094644;28;20048;-59
2022/01/30 10:20:00;;;;;;;31.73;5.93;;;;;;;8.44;60.38;100848.22;5094239;28;20113;-59
2022/01/30 10:22:27;;;;;;;30.45;6.28;;;;;;;8.50;62.68;100848.94;5093314;28;20052;-60
2022/01/30 10:24:54;;;;;;;34.70;6.63;;;;;;;8.50;62.57;100839.31;5094639;28;20073;-62
2022/01/30 10:27:26;;;;;;;40.55;7.20;;;;;;;8.51;59.92;100841.03;5094352;28;20048;-60
2022/01/30 10:30:04;;;;;;;30.17;7.00;;;;;;;8.54;60.23;100845.34;5094508;28;20048;-66
2022/01/30 10:32:31;;;;;;;28.85;5.28;;;;;;;8.59;61.90;100846.06;5093283;28;20048;-61
2022/01/30 10:35:08;;;;;;;32.85;5.55;;;;;;;8.59;59.59;100853.94;5094206;28;20077;-59
2022/01/30 10:37:39;;;;;;;36.60;6.72;;;;;;;8.67;62.07;100837.97;5074449;28;20102;-59
2022/01/30 10:40:17;;;;;;;34.10;6.68;;;;;;;8.71;59.73;100864.06;5072784;28;20040;-59
2022/01/30 10:42:49;;;;;;;29.73;5.78;;;;;;;8.81;60.76;100874.25;5072652;28;20053;-58
2022/01/30 10:45:18;;;;;;;42.00;6.45;;;;;;;8.88;61.10;100870.53;5072577;28;20052;-60
2022/01/30 10:47:46;;;;;;;32.55;6.25;;;;;;;8.94;61.17;100874.75;5074252;28;20106;-59
2022/01/30 10:50:15;;;;;;;31.88;7.07;;;;;;;8.99;60.56;100857.94;5074087;28;20053;-61
2022/01/30 10:52:53;;;;;;;32.60;5.88;;;;;;;9.06;58.58;100865.59;5083687;28;20052;-59
2022/01/30 10:55:33;;;;;;;32.70;5.43;;;;;;;9.13;58.23;100862.72;5094217;28;20097;-59
2022/01/30 10:58:01;;;;;;;26.02;5.18;;;;;;;9.24;61.09;100862.34;5093944;28;20056;-59
2022/01/30 11:00:47;;;;;;;28.73;6.50;;;;;;;9.26;57.40;100859.69;5094101;28;20048;-60
2022/01/30 11:03:50;;;;;;;29.85;5.68;;;;;;;9.31;58.68;100870.03;5094103;28;20044;-59
2022/01/30 11:06:17;;;;;;;27.97;6.07;;;;;;;9.39;60.77;100863.59;5092691;28;20069;-60
2022/01/30 11:08:47;;;;;;;28.90;6.10;;;;;;;9.45;60.19;100862.53;5093759;28;20819;-60
2022/01/30 11:19:17;;;;;;;29.05;6.00;;;;;;;9.48;58.94;100851.06;5093602;28;20076;-59
2022/01/30 11:21:48;;;;;;;36.97;6.15;;;;;;;9.45;57.89;100848.53;5093904;28;20545;-60
2022/01/30 11:24:16;;;;;;;32.17;5.93;;;;;;;9.44;58.98;100858.22;5092399;28;20044;-60
2022/01/30 11:26:44;;;;;;;36.97;6.85;;;;;;;9.43;57.96;100843.34;5093507;28;20117;-59
2022/01/30 11:29:11;;;;;;;27.30;5.70;;;;;;;9.45;59.55;100849.41;5092814;28;20056;-60
2022/01/30 11:31:38;;;;;;;35.83;5.90;;;;;;;9.46;59.20;100845.84;5091061;28;20040;-60
2022/01/30 11:34:05;;;;;;;33.42;6.45;;;;;;;9.49;59.33;100863.28;5093539;28;20052;-59
2022/01/30 11:36:39;;;;;;;33.13;6.00;;;;;;;9.50;57.43;100851.88;5093451;28;20044;-60
2022/01/30 11:39:07;;;;;;;35.25;5.88;;;;;;;9.56;58.90;100853.41;5092079;28;20048;-63
2022/01/30 11:41:34;;;;;;;32.47;5.65;;;;;;;9.59;59.00;100837.53;5091868;28;20059;-59
2022/01/30 11:44:19;;;;;;;29.73;6.65;;;;;;;9.59;55.75;100858.56;5093361;28;20051;-59
2022/01/30 11:46:53;;;;;;;26.25;5.88;;;;;;;9.63;57.55;100861.06;5092834;28;20120;-60
2022/01/30 11:49:19;;;;;;;27.55;5.53;;;;;;;9.68;59.13;100855.63;5092463;28;20051;-59
2022/01/30 11:51:51;;;;;;;29.30;5.43;;;;;;;9.70;57.48;100848.53;5093054;28;20047;-59
2022/01/30 11:54:37;;;;;;;35.58;6.70;;;;;;;9.74;56.98;100852.78;5092942;28;20051;-59
2022/01/30 11:57:29;;;;;;;29.02;5.45;;;;;;;9.81;56.31;100849.91;5091847;28;20078;-59
2022/01/30 11:59:58;;;;;;;34.55;5.82;;;;;;;9.93;59.12;100849.47;5091291;28;20658;-60
2022/01/30 12:02:35;;;;;;;29.80;6.13;;;;;;;10.06;59.61;100838.50;5091048;28;20072;-58
2022/01/30 12:05:05;;;;;;;32.28;5.43;;;;;;;10.24;59.80;100837.78;5093050;28;20047;-59
2022/01/30 12:07:35;;;;;;;28.17;5.53;;;;;;;10.48;58.29;100837.81;5092870;28;20056;-59
2022/01/30 12:10:24;;;;;;;25.90;5.53;;;;;;;10.64;51.93;100831.91;5092369;28;20055;-59
2022/01/30 12:12:50;;;;;;;31.30;6.03;;;;;;;10.81;57.93;100829.47;5091196;28;20079;-58
2022/01/30 12:15:42;;;;;;;32.90;5.32;;;;;;;10.85;55.78;100837.25;5092195;28;20055;-59
2022/01/30 12:18:13;;;;;;;22.95;4.80;;;;;;;10.96;55.60;100829.78;5092173;28;20442;-58
2022/01/30 12:21:01;;;;;;;28.33;6.15;;;;;;;11.06;54.39;100822.31;5092076;28;20101;-58
2022/01/30 12:23:30;;;;;;;28.05;5.63;;;;;;;11.18;55.95;100823.59;5090638;28;20106;-59
2022/01/30 12:26:08;;;;;;;27.08;6.32;;;;;;;11.23;55.38;100829.53;5092609;28;20061;-58
2022/01/30 12:28:49;;;;;;;32.55;5.45;;;;;;;11.21;52.55;100823.44;5092385;28;20044;-58
2022/01/30 12:31:25;;;;;;;22.02;5.07;;;;;;;11.26;51.96;100823.28;5090235;28;20044;-60
2022/01/30 12:34:14;;;;;;;36.58;6.38;;;;;;;11.33;52.80;100841.38;5091894;28;20059;-59